DW4982 Weather Reports


time (UTC)temp
C
wind
direction
speed
KPH
gust
KPH
rain 1hr
cm
rain 24hr
cm
rain mn
cm
humidity
%
barometer
mb
20190422085030 16 180 8.0 0.0 0.00 0.00 0.10 62 1000.9
20190422084537 16 5 6.4 0.0 0.00 0.00 0.10 61 1000.9
20190422084029 16 106 6.4 0.0 0.00 0.00 0.10 61 1000.9
20190422083536 16 51 6.4 0.0 0.00 0.00 0.10 60 1000.9
20190422083018 16 5 6.4 0.0 0.00 0.00 0.10 61 1000.8
20190422082535 16 57 6.4 0.0 0.00 0.00 0.10 61 1000.8
20190422082020 15 248 4.8 0.0 0.00 0.00 0.10 64 1000.8
20190422081523 15 30 4.8 0.0 0.00 0.00 0.10 67 1000.8
20190422081018 15 263 3.2 0.0 0.00 0.00 0.10 69 1000.8
20190422080605 15 15 4.8 6.4 0.00 0.00 0.10 71 1000.8
20190421164531 17 75 12.9 0.0 0.00 0.00 0.00 58 1008.5
20190421164026 17 83 14.5 0.0 0.00 0.00 0.00 58 1008.5
20190421163534 17 66 14.5 0.0 0.00 0.00 0.00 58 1008.6
20190421163020 17 81 14.5 0.0 0.00 0.00 0.00 58 1008.7
20190421162517 17 81 12.9 0.0 0.00 0.00 0.00 57 1008.7
20190421162025 17 95 11.3 0.0 0.00 0.00 0.00 58 1008.7
20190421161530 17 92 14.5 0.0 0.00 0.00 0.00 58 1008.8
20190421161027 17 5 11.3 0.0 0.00 0.00 0.00 57 1008.8
20190421160533 17 83 9.7 0.0 0.00 0.00 0.00 57 1008.9
20190421160016 17 57 11.3 0.0 0.00 0.00 0.00 57 1008.9
20190421155531 17 86 11.3 0.0 0.00 0.00 0.00 57 1009.0
20190421155021 17 155 11.3 0.0 0.00 0.00 0.00 57 1009.0
20190421154526 17 85 9.7 0.0 0.00 0.00 0.00 57 1009.0
20190421154023 17 132 11.3 0.0 0.00 0.00 0.00 57 1009.0
20190421153531 17 83 11.3 0.0 0.00 0.00 0.00 56 1009.0
20190421153037 17 88 12.9 0.0 0.00 0.00 0.00 56 1009.1
20190421152530 17 22 14.5 0.0 0.00 0.00 0.00 56 1009.0
20190421152037 17 40 12.9 0.0 0.00 0.00 0.00 56 1009.1
20190421151521 17 53 12.9 0.0 0.00 0.00 0.00 56 1009.2
20190421151034 17 43 12.9 0.0 0.00 0.00 0.00 55 1009.0
20190421150520 18 65 11.3 0.0 0.00 0.00 0.00 54 1009.1
20190421150026 18 59 12.9 0.0 0.00 0.00 0.00 53 1009.1
20190421145518 18 107 12.9 0.0 0.00 0.00 0.00 52 1009.1
20190421145027 18 67 11.3 0.0 0.00 0.00 0.00 51 1009.1
20190421144533 18 80 9.7 0.0 0.00 0.00 0.00 52 1009.3
20190421144026 18 76 9.7 0.0 0.00 0.00 0.00 51 1009.1
20190421143534 18 86 12.9 0.0 0.00 0.00 0.00 50 1009.1
20190421143038 18 94 12.9 0.0 0.00 0.00 0.00 50 1009.2
20190421142531 18 21 11.3 0.0 0.00 0.00 0.00 50 1009.2
20190421142016 18 86 9.7 0.0 0.00 0.00 0.00 49 1009.3
20190421141523 18 255 8.0 0.0 0.00 0.00 0.00 49 1009.3
20190421141036 18 305 8.0 0.0 0.00 0.00 0.00 49 1009.4